Latest Weather Observations for Friendly Beaches

IDT60801

Issued at 11:02 am EDT Thursday 5 March 2015 (issued every 30 minutes, with the page automatically refreshed every 10 minutes)

About weather observations | Map of weather stations | Latest weather observations for TAS | Other Formats
Station Details ID: 092114 Name: FRIENDLY BEACHES Lat: -42.00 Lon: 148.28 Height: 55.0 m
Data from the previous 72 hours. | See also: Recent months at Friendly Beaches
Date/Time
EDT
Temp
°C
App
Temp
°C
Dew
Point
Rel
Hum
%
Delta-T
°C
Wind Press
QNH
hPa
Press
MSL
hPa
Rain
since 9 am
mm
Dir
 
Spd
km/h
Gust
km/h
Spd
kts
Gust
kts
05/11:00am 13.9 6.5 -0.5 37 6.0 SW 28 54 15 29 1005.5 1005.4 0.0
05/10:30am 13.1 5.5 0.5 42 5.3 SW 30 54 16 29 1005.3 1005.2 0.0
05/10:00am 12.7 5.7 1.7 47 4.8 SW 28 48 15 26 1004.8 1004.7 0.0
05/09:30am 12.1 4.6 1.4 48 4.5 WSW 30 54 16 29 1004.4 1004.3 0.0
05/09:00am 11.4 4.0 1.9 52 4.1 WSW 30 48 16 26 1003.5 1003.4 0.0
05/08:30am 10.5 3.2 2.4 57 3.5 WSW 30 57 16 31 1002.6 1002.5 0.0
05/08:00am 10.1 2.9 3.2 62 3.0 WSW 30 52 16 28 1001.7 1001.5 0.0
05/07:32am 9.7 2.6 3.4 65 2.7 WSW 30 50 16 27 1000.9 1000.8 0.0
05/07:30am 9.7 2.5 3.2 64 2.8 WSW 30 48 16 26 1000.7 1000.6 0.0
05/07:03am 10.1 3.3 2.9 61 3.1 SW 28 57 15 31 1000.1 1000.0 0.0
05/07:00am 10.1 3.7 3.2 62 3.0 SW 26 46 14 25 1000.0 999.9 0.0
05/06:30am 10.4 4.5 3.7 63 3.0 SW 24 41 13 22 999.0 998.9 0.0
05/06:00am 10.5 5.6 4.2 65 2.8 WSW 19 32 10 17 998.5 998.4 0.0
05/05:42am 10.8 4.1 3.6 61 3.2 WSW 28 48 15 26 998.2 998.1 0.0
05/05:30am 11.2 4.5 3.5 59 3.4 WSW 28 46 15 25 998.0 997.9 0.0
05/05:00am 11.7 5.9 4.4 61 3.3 WSW 24 37 13 20 997.5 997.4 0.0
05/04:30am 11.7 7.4 5.1 64 3.0 WSW 17 28 9 15 997.3 997.2 0.0
05/04:00am 12.2 7.4 5.8 65 3.0 WSW 20 35 11 19 996.6 996.5 0.0
05/03:30am 11.4 7.1 7.1 75 2.1 SW 19 33 10 18 995.8 995.7 0.0
05/03:08am 12.1 6.1 7.0 71 2.5 WSW 28 52 15 28 995.3 995.2 0.0
05/03:00am 13.3 7.8 5.9 61 3.5 WSW 24 48 13 26 995.1 995.0 0.0
05/02:50am 14.4 10.0 7.5 63 3.4 WSW 20 44 11 24 995.0 994.9 0.0
05/02:30am 14.1 11.5 7.9 66 3.1 W 11 22 6 12 995.1 995.0 0.0
05/02:00am 14.5 11.2 8.0 65 3.3 W 15 30 8 16 995.4 995.3 0.0
05/01:30am 14.8 10.8 8.1 64 3.4 WNW 19 37 10 20 995.5 995.4 0.0
05/01:00am 15.0 11.8 8.5 65 3.3 WNW 15 32 8 17 995.3 995.2 0.0
05/12:30am 15.2 12.1 8.7 65 3.3 WNW 15 28 8 15 995.6 995.5 0.0
05/12:00am 15.5 11.6 8.7 64 3.5 WNW 19 32 10 17 995.9 995.8 0.0
 
Date/Time
EDT
Temp
°C
App
Temp
°C
Dew
Point
Rel
Hum
%
Delta-T
°C
Wind Press
QNH
hPa
Press
MSL
hPa
Rain
since 9 am
mm
Dir
 
Spd
km/h
Gust
km/h
Spd
kts
Gust
kts
04/11:30pm 15.5 11.6 8.7 64 3.5 WNW 19 33 10 18 996.6 996.5 0.0
04/11:00pm 15.9 11.9 8.2 60 3.9 NW 19 39 10 21 997.0 996.9 0.0
04/10:30pm 16.6 12.5 7.8 56 4.4 WNW 19 39 10 21 997.6 997.5 0.0
04/10:00pm 16.9 12.7 7.3 53 4.8 WNW 19 37 10 20 998.0 997.9 0.0
04/09:30pm 17.4 13.3 8.5 56 4.6 NW 20 37 11 20 998.1 998.0 0.0
04/09:01pm 18.2 12.5 8.5 53 5.0 NW 28 48 15 26 998.2 998.1 0.0
04/09:00pm 18.2 13.0 8.7 54 5.0 NW 26 46 14 25 998.2 998.1 0.0
04/08:30pm 18.8 12.9 9.0 53 5.1 WNW 30 50 16 27 998.2 998.1 0.0
04/08:25pm 18.8 13.3 9.0 53 5.1 WNW 28 52 15 28 998.4 998.3 0.0
04/08:00pm 19.1 14.3 8.7 51 5.5 NW 24 39 13 21 998.1 998.0 0.0
04/07:30pm 19.8 15.7 8.5 48 5.9 WNW 20 43 11 23 998.4 998.3 0.0
04/07:00pm 20.3 15.8 8.6 47 6.2 NW 22 39 12 21 998.8 998.7 0.0
04/06:30pm 21.1 17.0 8.7 45 6.6 NW 20 43 11 23 998.8 998.7 0.0
04/06:00pm 22.3 17.9 8.8 42 7.2 NW 22 44 12 24 999.0 998.9 0.0
04/05:30pm 22.8 16.9 8.9 41 7.4 WNW 30 48 16 26 999.1 999.0 0.0
04/05:06pm 22.9 17.4 9.0 41 7.5 NW 28 46 15 25 999.3 999.2 0.0
04/05:00pm 23.4 18.2 9.0 40 7.8 WNW 26 39 14 21 999.5 999.4 0.0
04/04:30pm 24.2 19.8 9.0 38 8.2 NW 22 41 12 22 999.6 999.5 0.0
04/04:00pm 24.1 20.2 9.3 39 8.1 NW 20 41 11 22 999.9 999.8 0.0
04/03:30pm 23.1 19.2 8.8 40 7.7 WNW 19 37 10 20 1000.3 1000.2 0.0
04/03:00pm 22.6 18.6 9.0 42 7.3 NW 20 35 11 19 1000.7 1000.6 0.0
04/02:30pm 22.0 17.1 8.5 42 7.1 NW 24 43 13 23 1001.2 1001.1 0.0
04/02:13pm 22.2 16.4 8.0 40 7.5 NW 28 48 15 26 1001.6 1001.4 0.0
04/02:00pm 23.2 18.3 8.5 39 7.9 NW 24 41 13 22 1001.7 1001.5 0.0
04/01:31pm 22.8 17.1 8.5 40 7.6 NW 28 46 15 25 1001.9 1001.7 0.0
04/01:30pm 22.9 17.6 8.6 40 7.6 NW 26 46 14 25 1001.9 1001.7 0.0
04/01:04pm 22.3 16.4 7.7 39 7.6 WNW 28 50 15 27 1002.3 1002.2 0.0
04/01:00pm 22.6 17.7 8.3 40 7.6 WNW 24 50 13 27 1002.3 1002.2 0.0
04/12:30pm 21.9 16.7 8.8 43 7.0 NW 26 41 14 22 1003.2 1003.1 0.0
04/12:00pm 21.5 16.6 8.4 43 6.9 WNW 24 50 13 27 1003.7 1003.6 0.0
04/11:30am 20.9 16.4 8.5 45 6.5 WNW 22 37 12 20 1004.3 1004.2 0.0
04/11:00am 19.9 15.3 8.3 47 6.1 WNW 22 39 12 21 1004.5 1004.4 0.0
04/10:30am 19.1 13.7 8.1 49 5.7 NW 26 48 14 26 1004.9 1004.8 0.0
04/10:00am 18.5 13.8 7.9 50 5.4 NW 22 35 12 19 1005.1 1005.0 0.0
04/09:30am 17.5 12.7 7.5 52 5.0 WNW 22 35 12 19 1005.6 1005.5 0.0
04/09:00am 16.9 12.5 7.3 53 4.8 NW 20 41 11 22 1005.9 1005.8 0.0
04/08:30am 15.9 11.5 6.6 54 4.6 NW 19 41 10 22 1005.5 1005.4 0.0
04/08:00am 15.1 10.5 6.7 57 4.1 NW 20 39 11 21 1006.0 1005.9 0.0
04/07:30am 14.2 10.5 6.3 59 3.8 NW 15 32 8 17 1006.2 1006.1 0.0
04/07:00am 13.8 9.6 5.7 58 3.9 NW 17 28 9 15 1006.2 1006.1 0.0
04/06:35am 13.8 7.4 5.4 57 4.0 WNW 28 48 15 26 1005.9 1005.8 0.0
04/06:30am 13.9 7.1 5.3 56 4.0 WNW 30 46 16 25 1005.9 1005.8 0.0
04/06:03am 14.2 7.4 5.3 55 4.2 WNW 30 50 16 27 1005.7 1005.6 0.0
04/06:00am 14.1 6.9 5.2 55 4.2 WNW 32 48 17 26 1005.6 1005.5 0.0
04/05:33am 14.0 7.6 5.1 55 4.2 WNW 28 46 15 25 1005.4 1005.3 0.0
04/05:30am 14.0 8.0 5.1 55 4.2 WNW 26 46 14 25 1005.5 1005.4 0.0
04/05:16am 14.0 7.5 4.9 54 4.2 WNW 28 52 15 28 1005.6 1005.5 0.0
04/05:00am 13.8 8.8 4.7 54 4.2 WNW 20 37 11 20 1005.7 1005.6 0.0
04/04:36am 13.9 7.4 4.5 53 4.3 WNW 28 46 15 25 1005.8 1005.7 0.0
04/04:30am 13.9 8.2 4.8 54 4.2 WNW 24 43 13 23 1005.9 1005.8 0.0
04/04:07am 13.8 7.3 4.7 54 4.2 WNW 28 46 15 25 1006.1 1006.0 0.0
04/04:00am 13.9 7.7 4.5 53 4.4 WNW 26 43 14 23 1006.4 1006.3 0.0
04/03:38am 13.9 7.0 4.5 53 4.3 WNW 30 54 16 29 1006.7 1006.6 0.0
04/03:30am 13.8 7.7 4.7 54 4.2 WNW 26 43 14 23 1006.9 1006.8 0.0
04/03:17am 13.8 7.3 4.7 54 4.2 WNW 28 46 15 25 1007.0 1006.9 0.0
04/03:00am 13.9 7.7 4.5 53 4.4 WNW 26 44 14 24 1007.2 1007.1 0.0
04/02:46am 13.9 7.4 4.5 53 4.3 WNW 28 46 15 25 1007.4 1007.3 0.0
04/02:30am 14.0 7.1 4.6 53 4.4 WNW 30 44 16 24 1007.4 1007.3 0.0
04/02:23am 13.9 7.4 4.8 54 4.2 WNW 28 48 15 26 1007.5 1007.4 0.0
04/02:00am 13.4 8.5 4.3 54 4.2 WNW 19 37 10 20 1008.3 1008.2 0.0
04/01:30am 13.6 8.1 3.9 52 4.4 WNW 22 35 12 19 1008.7 1008.6 0.0
04/01:00am 13.6 8.1 3.9 52 4.4 WNW 22 37 12 20 1009.1 1009.0 0.0
04/12:30am 14.1 8.2 4.1 51 4.6 WNW 24 41 13 22 1009.2 1009.1 0.0
04/12:00am 14.7 9.2 4.1 49 4.9 WNW 22 35 12 19 1009.4 1009.3 0.0
 
Date/Time
EDT
Temp
°C
App
Temp
°C
Dew
Point
Rel
Hum
%
Delta-T
°C
Wind Press
QNH
hPa
Press
MSL
hPa
Rain
since 9 am
mm
Dir
 
Spd
km/h
Gust
km/h
Spd
kts
Gust
kts
03/11:30pm 15.4 10.1 5.0 50 4.9 W 22 41 12 22 1009.6 1009.5 0.0
03/11:00pm 15.4 11.0 6.4 55 4.4 WNW 19 33 10 18 1009.7 1009.6 0.0
03/10:30pm 14.9 12.5 8.8 67 3.1 W 11 19 6 10 1009.8 1009.7 0.0
03/10:00pm 15.2 12.9 9.1 67 3.1 W 11 19 6 10 1009.8 1009.7 0.0
03/09:30pm 15.1 13.5 10.1 72 2.6 WNW 9 15 5 8 1010.0 1009.9 0.0
03/09:00pm 14.4 13.6 11.7 84 1.5 NW 7 9 4 5 1010.0 1009.9 0.0
03/08:30pm 14.9 14.3 12.4 85 1.4 S 7 9 4 5 1009.7 1009.6 0.0
03/08:00pm 15.5 14.4 12.1 80 1.9 SE 9 13 5 7 1009.8 1009.7 0.0
03/07:30pm 16.1 14.2 11.7 75 2.4 E 13 19 7 10 1010.1 1010.0 0.0
03/07:00pm 16.8 14.3 11.1 69 3.1 ENE 15 20 8 11 1010.4 1010.3 0.0
03/06:30pm 17.9 14.9 12.1 69 3.2 ENE 19 26 10 14 1010.8 1010.7 0.0
03/06:00pm 18.2 15.8 11.5 65 3.7 ENE 15 24 8 13 1011.1 1011.0 0.0
03/05:30pm 19.0 16.0 11.8 63 4.0 ENE 19 30 10 16 1011.4 1011.3 0.0
03/05:00pm 18.1 14.8 11.7 66 3.5 NE 20 28 11 15 1011.6 1011.5 0.0
03/04:30pm 19.5 16.2 11.5 60 4.4 NE 20 30 11 16 1011.8 1011.7 0.0
03/04:00pm 20.5 17.5 12.5 60 4.5 ENE 20 30 11 16 1012.1 1012.0 0.0
03/03:30pm 20.5 17.4 12.2 59 4.7 ENE 20 28 11 15 1012.5 1012.4 0.0
03/03:00pm 19.4 17.0 11.4 60 4.4 ENE 15 22 8 12 1012.9 1012.8 0.0
03/02:30pm 20.4 18.1 11.6 57 4.9 ENE 15 20 8 11 1013.2 1013.1 0.0
03/02:00pm 18.4 16.1 10.3 59 4.3 E 13 19 7 10 1013.3 1013.2 0.0
03/01:30pm 18.5 15.9 10.6 60 4.3 E 15 20 8 11 1013.5 1013.4 0.0
03/01:00pm 20.3 16.4 9.5 50 5.8 SE 20 28 11 15 1013.6 1013.5 0.0
03/12:30pm 21.2 18.1 10.4 50 5.9 SE 17 24 9 13 1013.7 1013.6 0.0
03/12:00pm 20.7 17.4 9.6 49 5.9 SE 17 20 9 11 1014.2 1014.1 0.0
03/11:30am 18.6 16.5 9.7 56 4.7 S 11 20 6 11 1014.4 1014.3 0.0
03/11:00am 19.3 16.8 8.0 48 5.8 WSW 11 19 6 10 1014.7 1014.6 0.0
03/10:30am 18.2 15.9 7.6 50 5.4 SW 9 17 5 9 1014.6 1014.5 0.0
03/10:00am 16.5 14.6 7.7 56 4.4 SW 7 17 4 9 1014.4 1014.3 0.0
03/09:30am 16.1 14.1 7.1 55 4.5 WSW 7 13 4 7 1014.4 1014.3 0.0
03/09:00am 14.4 12.9 8.4 67 3.0 SW 6 11 3 6 1014.5 1014.4 0.0
03/08:30am 13.5 11.9 7.9 69 2.8 WSW 6 11 3 6 1014.2 1014.1 0.0
03/08:00am 13.1 11.7 7.3 68 2.8 W 4 7 2 4 1014.0 1013.9 0.0
03/07:30am 12.4 10.3 6.5 67 2.8 WNW 7 11 4 6 1013.4 1013.3 0.0
03/07:00am 11.5 9.4 6.8 73 2.2 WNW 7 11 4 6 1013.1 1013.0 0.0
03/06:30am 11.2 9.2 6.9 75 2.0 WSW 7 9 4 5 1012.6 1012.5 0.0
03/06:00am 11.0 8.7 7.3 78 1.8 W 9 13 5 7 1012.2 1012.1 0.0
03/05:30am 11.3 8.9 7.2 76 2.0 W 9 13 5 7 1012.1 1012.0 0.0
03/05:00am 11.5 9.1 7.2 75 2.1 WSW 9 13 5 7 1012.0 1011.9 0.0
03/04:30am 12.8 10.1 7.5 70 2.6 WNW 11 20 6 11 1011.9 1011.8 0.0
03/04:00am 13.0 10.7 7.5 69 2.7 WNW 9 15 5 8 1011.9 1011.8 0.0
03/03:30am 12.1 9.9 8.0 76 2.0 WNW 9 13 5 7 1012.4 1012.3 0.0
03/03:00am 12.5 11.2 7.6 72 2.4 SW 4 6 2 3 1012.8 1012.7 0.0
03/02:30am 13.7 11.5 7.7 67 3.0 WNW 9 15 5 8 1012.8 1012.7 0.0
03/02:00am 14.3 10.9 7.8 65 3.2 WNW 15 24 8 13 1012.7 1012.6 0.0
03/01:30am 14.6 11.3 7.9 64 3.3 NW 15 24 8 13 1013.0 1012.9 0.0
03/01:00am 14.6 10.4 7.6 63 3.5 NW 19 28 10 15 1012.9 1012.8 0.0
03/12:30am 14.5 10.8 7.8 64 3.3 WNW 17 28 9 15 1013.1 1013.0 0.0
03/12:00am 14.7 10.9 7.5 62 3.6 WNW 17 30 9 16 1013.3 1013.2 0.0
 
Date/Time
EDT
Temp
°C
App
Temp
°C
Dew
Point
Rel
Hum
%
Delta-T
°C
Wind Press
QNH
hPa
Press
MSL
hPa
Rain
since 9 am
mm
Dir
 
Spd
km/h
Gust
km/h
Spd
kts
Gust
kts
02/11:30pm 15.2 10.8 7.3 59 3.9 WNW 20 44 11 24 1013.2 1013.1 0.0
02/11:00pm 15.6 11.8 3.7 45 5.5 WNW 13 24 7 13 1013.5 1013.4 0.0
02/10:30pm 15.6 13.0 3.4 44 5.6 WNW 6 9 3 5 1013.3 1013.2 0.0
02/10:00pm 16.1 12.9 2.9 41 6.0 N 9 17 5 9 1012.9 1012.8 0.0
02/09:30pm 16.8 13.0 1.7 36 6.7 NNW 11 20 6 11 1012.4 1012.3 0.0
02/09:00pm 17.2 13.4 1.6 35 7.0 NNW 11 17 6 9 1012.3 1012.2 0.0
02/08:30pm 17.5 13.0 1.9 35 7.0 N 15 28 8 15 1011.8 1011.7 0.0
02/08:00pm 17.6 13.1 2.4 36 6.9 N 15 28 8 15 1012.2 1012.1 0.0
02/07:30pm 17.8 13.7 4.4 41 6.4 N 15 28 8 15 1011.9 1011.8 0.0
02/07:00pm 18.0 14.6 5.9 45 5.9 N 13 26 7 14 1011.8 1011.7 0.0
02/06:30pm 18.4 15.3 7.2 48 5.7 N 13 28 7 15 1012.0 1011.9 0.0
02/06:00pm 18.9 16.0 8.3 50 5.5 N 13 22 7 12 1011.8 1011.7 0.0
02/05:30pm 19.3 17.4 11.8 62 4.2 N 13 22 7 12 1012.0 1011.9 0.0
02/05:00pm 19.1 16.6 12.4 65 3.7 N 17 33 9 18 1012.3 1012.2 0.0
02/04:30pm 18.7 15.2 14.6 77 2.4 NNE 26 39 14 21 1012.4 1012.3 0.0
02/04:00pm 18.6 14.3 14.3 76 2.5 NNE 30 46 16 25 1012.9 1012.8 0.0
02/03:30pm 19.8 15.0 14.0 69 3.4 NNE 32 44 17 24 1013.2 1013.1 0.0
02/03:10pm 19.5 14.7 13.9 70 3.2 NNE 32 50 17 27 1013.8 1013.7 0.0
02/03:00pm 18.8 13.7 13.2 70 3.2 NNE 32 46 17 25 1013.8 1013.7 0.0
02/02:30pm 19.1 14.3 12.8 67 3.6 NNE 30 48 16 26 1014.3 1014.2 0.0
02/02:20pm 19.3 14.9 13.0 67 3.6 NNE 28 46 15 25 1014.4 1014.3 0.0
02/02:00pm 18.6 14.2 13.0 70 3.2 NNE 28 43 15 23 1014.8 1014.7 0.0
02/01:30pm 18.8 14.1 12.1 65 3.7 NNE 28 43 15 23 1015.4 1015.3 0.0
02/01:00pm 18.7 14.2 11.5 63 3.9 NNE 26 37 14 20 1016.0 1015.9 0.0
02/12:30pm 19.2 14.6 11.0 59 4.5 NNE 26 39 14 21 1016.6 1016.5 0.0
02/12:00pm 19.0 15.4 10.6 58 4.5 NE 20 33 11 18 1017.4 1017.3 0.0
02/11:30am 18.5 14.9 9.8 57 4.6 NE 19 28 10 15 1018.0 1018.0 0.0

Other Formats:

Comma delimited format used in spreadsheet applications
http://www.bom.gov.au/fwo/IDT60801/IDT60801.94987.axf

JavaScript Object Notation format (JSON) in row-major order
http://www.bom.gov.au/fwo/IDT60801/IDT60801.94987.json